Time;durP1;ratioP1;P1;durP2;ratioP2;P2;SDS_P1;SDS_P2;PMS_P1;PMS_P2;Temp;Humidity;BMP_temperature;BMP_pressure;BME280_temperature;BME280_humidity;BME280_pressure;Samples;Min_cycle;Max_cycle;Signal;HPM_P1;HPM_P2
2022/06/23 00:02:06;;;;;;;8.43;5.30;;;20.90;99.90;;;21.16;70.38;97277.06;5043456;28;20053;-47
2022/06/23 00:04:42;;;;;;;10.80;6.63;;;20.90;99.90;;;21.18;70.23;97276.81;5043637;28;20049;-44
2022/06/23 00:07:25;;;;;;;10.10;6.07;;;20.90;99.90;;;21.16;70.06;97277.06;5042673;28;20045;-47
2022/06/23 00:10:13;;;;;;;9.32;5.50;;;20.90;99.90;;;21.17;70.38;97272.47;5042457;28;20055;-44
2022/06/23 00:12:44;;;;;;;10.07;5.85;;;20.90;99.90;;;21.19;70.36;97275.75;5043746;28;20247;-48
2022/06/23 00:15:27;;;;;;;9.77;5.70;;;20.90;99.90;;;21.18;69.98;97276.81;5041970;28;20053;-44
2022/06/23 00:18:03;;;;;;;12.10;5.32;;;20.90;99.90;;;21.18;69.80;97271.41;5043142;28;20071;-49
2022/06/23 00:20:55;;;;;;;9.30;5.30;;;20.90;99.90;;;21.17;69.98;97277.88;5043440;28;20057;-46
2022/06/23 00:23:35;;;;;;;10.15;5.85;;;20.90;99.90;;;21.14;69.89;97279.19;5043347;28;20053;-46
2022/06/23 00:26:19;;;;;;;11.40;7.28;;;20.90;99.90;;;21.16;70.25;97266.22;5042270;28;20264;-45
2022/06/23 00:28:50;;;;;;;;;;;20.90;99.90;;;21.09;69.76;97268.25;5042277;28;20072;-48
2022/06/23 00:31:57;;;;;;;12.88;5.43;;;20.80;99.90;;;21.09;69.75;97267.41;5042264;28;19917;-47
2022/06/23 00:34:37;;;;;;;13.20;7.95;;;20.80;99.90;;;21.04;69.89;97260.84;5042928;28;20055;-48
2022/06/23 00:37:14;;;;;;;15.35;6.75;;;20.70;99.90;;;20.99;70.31;97258.00;5043055;28;20048;-48
2022/06/23 00:43:03;;;;;;;12.50;5.33;;;20.60;99.90;;;20.90;70.12;97264.88;5003171;28;1146796;-45
2022/06/23 00:45:42;;;;;;;9.30;6.22;;;20.60;99.90;;;20.81;70.19;97271.69;5042870;28;20041;-50
2022/06/23 00:48:23;;;;;;;9.63;5.32;;;20.40;99.90;;;20.75;70.12;97267.22;5042046;28;20240;-47
2022/06/23 00:51:20;;;;;;;10.80;5.60;;;20.40;99.90;;;20.72;70.15;97278.50;5044018;28;20258;-45
2022/06/23 00:54:24;;;;;;;11.20;5.82;;;20.30;99.90;;;20.63;70.16;97272.63;5042844;28;20056;-51
2022/06/23 00:57:09;;;;;;;11.57;6.50;;;20.30;99.90;;;20.60;69.97;97267.69;5044769;28;20053;-45
2022/06/23 01:00:21;;;;;;;11.77;5.53;;;20.30;99.90;;;20.56;70.24;97277.28;5042517;28;20248;-46
2022/06/23 01:03:05;;;;;;;9.88;5.93;;;20.30;99.90;;;20.53;70.49;97267.78;5043553;28;20055;-47
2022/06/23 01:05:49;;;;;;;10.02;6.22;;;20.20;99.90;;;20.51;70.50;97266.34;5042521;28;20051;-49
2022/06/23 01:08:46;;;;;;;12.30;6.25;;;20.20;99.90;;;20.48;70.16;97274.94;5043243;28;20051;-46
2022/06/23 01:11:26;;;;;;;12.00;6.25;;;20.20;99.90;;;20.45;70.29;97285.19;5041777;28;20056;-47
2022/06/23 01:14:15;;;;;;;11.65;5.60;;;20.20;99.90;;;20.37;70.32;97284.69;5041513;28;20244;-46
2022/06/23 01:16:54;;;;;;;11.07;5.38;;;20.10;99.90;;;20.36;70.20;97285.75;5026665;28;20049;-45
2022/06/23 01:19:57;;;;;;;10.02;6.53;;;20.00;99.90;;;20.33;70.39;97295.13;5041989;28;20055;-49
2022/06/23 01:22:51;;;;;;;11.45;6.38;;;20.00;99.90;;;20.33;70.47;97299.72;5043444;28;20049;-48
2022/06/23 01:25:28;;;;;;;13.05;5.72;;;20.10;99.90;;;20.33;70.62;97297.81;5043539;28;20060;-47
2022/06/23 01:28:23;;;;;;;8.32;5.07;;;20.00;99.90;;;20.31;70.19;97304.53;5041665;28;20041;-47
2022/06/23 01:31:05;;;;;;;10.73;5.03;;;20.00;99.90;;;20.29;70.23;97317.47;5042167;28;20045;-46
2022/06/23 01:33:58;;;;;;;9.80;5.57;;;20.00;99.90;;;20.26;70.25;97322.28;5042772;28;20045;-45
2022/06/23 01:36:38;;;;;;;10.30;6.00;;;20.00;99.90;;;20.23;70.19;97317.31;5026762;28;20049;-45
2022/06/23 01:39:34;;;;;;;11.75;5.95;;;19.90;99.90;;;20.20;70.22;97312.38;5042622;28;20050;-45
2022/06/23 01:42:19;;;;;;;11.32;5.53;;;19.90;99.90;;;20.11;70.33;97313.75;5042959;28;20049;-46
2022/06/23 01:45:14;;;;;;;9.93;5.13;;;19.80;99.90;;;20.05;70.62;97311.97;5042520;28;20060;-47
2022/06/23 01:48:01;;;;;;;10.48;5.82;;;19.60;99.90;;;20.00;70.64;97320.75;5041624;28;20049;-46
2022/06/23 01:50:41;;;;;;;11.68;5.68;;;19.70;99.90;;;19.99;70.62;97321.84;5042026;28;20041;-48
2022/06/23 01:53:12;;;;;;;13.35;5.32;;;19.70;99.90;;;19.99;70.40;97313.72;5041665;28;20046;-45
2022/06/23 01:56:17;;;;;;;12.13;5.28;;;19.70;99.90;;;19.97;70.51;97317.72;5043017;28;20056;-45
2022/06/23 01:59:19;;;;;;;8.25;5.38;;;19.70;99.90;;;19.95;70.58;97314.41;5042434;28;20046;-48
2022/06/23 02:02:06;;;;;;;12.27;6.07;;;19.70;99.90;;;19.92;70.77;97315.69;5041482;28;20246;-47
2022/06/23 02:04:43;;;;;;;8.65;4.38;;;19.60;99.90;;;19.91;70.70;97305.94;5041403;28;20051;-46
2022/06/23 02:07:41;;;;;;;9.20;4.40;;;19.60;99.90;;;19.90;70.46;97309.69;5042370;28;20037;-46
2022/06/23 02:10:18;;;;;;;9.75;5.50;;;19.60;99.90;;;19.85;70.67;97301.44;5041386;28;20041;-46
2022/06/23 02:13:14;;;;;;;9.95;5.95;;;19.50;99.90;;;19.85;70.45;97298.75;5042775;28;20045;-47
2022/06/23 02:16:18;;;;;;;10.40;5.47;;;19.50;99.90;;;19.84;70.60;97303.31;5042309;28;20056;-47
2022/06/23 02:18:59;;;;;;;;;;;19.50;99.90;;;19.79;70.62;97295.09;5042541;28;20049;-47
2022/06/23 02:21:48;;;;;;;11.73;5.93;;;19.40;99.90;;;19.79;70.72;97297.81;5041447;28;19924;-47
2022/06/23 02:24:43;;;;;;;7.85;4.63;;;19.40;99.90;;;19.79;70.34;97303.22;5042155;28;20393;-46
2022/06/23 02:27:24;;;;;;;8.70;5.88;;;19.50;99.90;;;19.80;70.41;97306.72;5041102;28;20045;-46
2022/06/23 02:30:17;;;;;;;11.73;5.53;;;19.50;99.90;;;19.78;70.63;97308.81;5042322;28;20046;-45
2022/06/23 02:33:07;;;;;;;11.35;5.47;;;19.40;99.90;;;19.75;70.55;97304.69;5044095;28;20053;-46
2022/06/23 02:35:51;;;;;;;11.82;5.30;;;19.40;99.90;;;19.64;70.65;97303.56;5042121;28;20360;-47
2022/06/23 02:38:41;;;;;;;9.88;5.50;;;19.20;99.90;;;19.60;70.73;97313.19;5042031;28;20045;-45
2022/06/23 02:41:18;;;;;;;15.73;5.40;;;19.20;99.90;;;19.60;71.11;97312.31;5041982;28;20041;-47
2022/06/23 02:44:21;;;;;;;9.05;5.60;;;19.20;99.90;;;19.57;70.84;97305.53;5041052;28;20051;-44
2022/06/23 02:46:58;;;;;;;8.82;4.32;;;19.20;99.90;;;19.57;71.25;97310.91;5042160;28;20273;-47
2022/06/23 02:49:52;;;;;;;11.48;5.15;;;19.20;99.90;;;19.55;71.14;97318.41;5041824;28;20053;-44
2022/06/23 02:53:14;;;;;;;10.60;5.38;;;19.20;99.90;;;19.50;71.14;97323.66;5042189;28;20251;-46
2022/06/23 02:56:06;;;;;;;10.77;5.45;;;19.20;99.90;;;19.52;71.36;97321.56;5040332;28;20290;-47
2022/06/23 02:58:53;;;;;;;12.65;6.13;;;19.20;99.90;;;19.53;71.47;97325.91;5040664;28;20053;-46
2022/06/23 03:01:41;;;;;;;9.05;4.95;;;19.20;99.90;;;19.54;71.37;97334.84;5041137;28;20246;-47
2022/06/23 03:04:23;;;;;;;7.03;4.68;;;19.30;99.90;;;19.51;71.57;97330.72;5042296;28;20053;-51
2022/06/23 03:07:03;;;;;;;9.77;4.78;;;19.20;99.90;;;19.52;71.31;97339.63;5041798;28;20045;-49
2022/06/23 03:09:43;;;;;;;10.93;6.95;;;19.20;99.90;;;19.47;71.40;97338.44;5040133;28;20329;-47
2022/06/23 03:12:34;;;;;;;8.93;5.32;;;19.20;99.90;;;19.46;71.56;97339.50;5039786;28;20051;-49
2022/06/23 03:15:37;;;;;;;9.10;5.97;;;19.10;99.90;;;19.46;71.19;97342.22;5040879;28;20045;-47
2022/06/23 03:18:28;;;;;;;11.40;6.07;;;19.20;99.90;;;19.47;71.28;97340.34;5042064;28;20057;-48
2022/06/23 03:21:01;;;;;;;8.02;4.35;;;19.20;99.90;;;19.45;71.30;97337.03;5041580;28;20348;-48
2022/06/23 03:23:48;;;;;;;9.85;5.53;;;19.10;99.90;;;19.43;71.19;97336.44;5040909;28;20363;-49
2022/06/23 03:26:46;;;;;;;8.77;4.97;;;19.10;99.90;;;19.39;71.14;97346.03;5040485;28;20045;-46
2022/06/23 03:29:32;;;;;;;8.98;6.10;;;19.10;99.90;;;19.36;71.33;97343.78;5041484;28;20049;-46
2022/06/23 03:32:41;;;;;;;8.45;4.82;;;19.10;99.90;;;19.36;71.79;97347.28;5040475;28;20056;-44
2022/06/23 03:35:43;;;;;;;9.07;5.55;;;19.10;99.90;;;19.38;71.70;97341.69;5040028;28;20065;-46
2022/06/23 03:41:36;;;;;;;10.60;5.22;;;19.10;99.90;;;19.39;71.49;97343.34;5043031;28;20060;-49
2022/06/23 03:41:39;;;;;;;11.80;4.93;;;19.10;99.90;;;19.42;71.29;97349.09;5044918;28;20076;-47
2022/06/23 03:44:30;;;;;;;7.75;4.68;;;19.10;99.90;;;19.45;71.33;97350.53;5043932;28;20060;-48
2022/06/23 03:47:11;;;;;;;7.78;5.00;;;19.20;99.90;;;19.46;71.55;97347.63;5044155;28;20246;-45
2022/06/23 03:50:05;;;;;;;11.60;5.78;;;19.20;99.90;;;19.44;71.44;97357.81;5044077;28;20242;-47
2022/06/23 03:52:49;;;;;;;12.32;4.88;;;19.20;99.90;;;19.42;71.42;97370.69;5044209;28;20336;-45
2022/06/23 03:55:27;;;;;;;9.20;5.40;;;19.20;99.90;;;19.44;71.58;97360.50;5043645;28;20067;-48
2022/06/23 03:58:42;;;;;;;6.40;4.88;;;19.20;99.90;;;19.47;71.67;97351.94;5043643;28;20049;-45
2022/06/23 04:01:44;;;;;;;19.00;5.65;;;19.20;99.90;;;19.51;71.51;97357.72;5043734;28;20072;-48
2022/06/23 04:04:13;;;;;;;13.35;6.68;;;19.30;99.90;;;19.53;71.76;97360.19;5044709;28;20075;-46
2022/06/23 04:06:46;;;;;;;9.15;5.25;;;19.30;99.90;;;19.54;71.84;97364.53;5045178;28;20056;-47
2022/06/23 04:09:34;;;;;;;12.98;5.47;;;19.30;99.90;;;19.54;71.69;97362.69;5044497;28;20059;-46
2022/06/23 04:12:14;;;;;;;13.77;5.75;;;19.30;99.90;;;19.55;71.69;97364.31;5042444;28;20041;-45
2022/06/23 04:14:57;;;;;;;9.68;5.28;;;19.30;99.90;;;19.54;71.69;97369.94;5043457;28;20045;-47
2022/06/23 04:17:39;;;;;;;11.70;6.20;;;19.30;99.90;;;19.53;71.70;97371.81;5045258;28;20059;-47
2022/06/23 04:20:34;;;;;;;11.10;4.72;;;19.30;99.90;;;19.52;71.91;97372.84;5044356;28;20049;-45
2022/06/23 04:23:10;;;;;;;11.13;5.60;;;19.30;99.90;;;19.53;71.98;97371.00;5044733;28;20057;-45
2022/06/23 04:25:50;;;;;;;11.70;5.13;;;19.30;99.90;;;19.54;72.21;97370.78;5044371;28;20068;-46
2022/06/23 04:28:43;;;;;;;12.60;6.07;;;19.30;99.90;;;19.55;71.70;97377.00;5044072;28;20319;-46
2022/06/23 04:31:19;;;;;;;10.50;5.38;;;19.40;99.90;;;19.55;72.01;97380.53;5043347;28;20046;-49
2022/06/23 04:33:48;;;;;;;8.80;5.15;;;19.30;99.90;;;19.55;72.19;97382.41;5043130;28;20049;-45
2022/06/23 04:36:33;;;;;;;12.40;5.97;;;19.30;99.90;;;19.54;71.77;97380.75;5044941;28;20049;-47
2022/06/23 04:39:16;;;;;;;15.32;5.93;;;19.30;99.90;;;19.54;72.14;97381.59;5042951;28;20361;-48
2022/06/23 04:41:59;;;;;;;10.48;5.80;;;19.30;99.90;;;19.53;72.09;97379.91;5044206;28;20049;-46
2022/06/23 04:44:31;;;;;;;9.57;4.57;;;19.30;99.90;;;19.52;72.45;97378.25;5042887;28;20049;-47
2022/06/23 04:47:12;;;;;;;12.82;5.47;;;19.30;99.90;;;19.56;72.28;97376.78;5042769;28;20044;-46
2022/06/23 04:49:54;;;;;;;6.60;4.38;;;19.40;99.90;;;19.58;72.37;97377.38;5041446;28;20050;-48
2022/06/23 04:52:22;;;;;;;12.68;5.20;;;19.40;99.90;;;19.62;72.51;97383.97;5043855;28;20055;-45
2022/06/23 04:55:07;;;;;;;9.52;4.28;;;19.50;99.90;;;19.66;72.44;97376.25;5044309;28;20045;-46
2022/06/23 04:57:48;;;;;;;10.13;5.78;;;19.50;99.90;;;19.72;72.45;97380.78;5042570;28;20229;-47
2022/06/23 05:00:56;;;;;;;10.18;5.78;;;19.60;99.90;;;19.76;72.09;97381.97;5042572;28;20050;-49
2022/06/23 05:03:47;;;;;;;10.20;5.53;;;19.60;99.90;;;19.78;72.16;97392.56;5042961;28;20356;-49
2022/06/23 05:06:44;;;;;;;12.65;5.93;;;19.60;99.90;;;19.82;72.21;97383.75;5042501;28;20038;-46
2022/06/23 05:09:37;;;;;;;9.55;4.25;;;19.70;99.90;;;19.88;72.21;97378.50;5042247;28;20041;-43
2022/06/23 05:12:37;;;;;;;9.23;4.95;;;19.80;99.90;;;19.93;72.35;97384.88;5042043;28;20049;-43
2022/06/23 05:15:36;;;;;;;10.38;5.63;;;19.80;99.90;;;20.01;72.40;97379.16;5043415;28;20243;-43
2022/06/23 05:18:18;;;;;;;10.23;5.07;;;20.00;99.90;;;20.06;72.27;97382.00;5042129;28;20046;-45
2022/06/23 05:21:09;;;;;;;15.07;5.47;;;20.00;99.90;;;20.08;72.88;97380.94;5043975;28;20057;-46
2022/06/23 05:23:44;;;;;;;10.65;5.30;;;20.10;99.90;;;20.13;73.18;97391.91;5043345;28;20045;-47
2022/06/23 05:26:40;;;;;;;14.23;5.93;;;20.20;99.90;;;20.21;72.53;97383.47;5041603;28;20057;-47
2022/06/23 05:29:23;;;;;;;11.98;6.07;;;20.20;99.90;;;20.27;72.66;97377.16;5043227;28;20045;-45
2022/06/23 05:31:58;;;;;;;9.57;5.97;;;20.30;99.90;;;20.35;72.62;97376.00;5043145;28;20330;-45
2022/06/23 05:34:34;;;;;;;10.32;4.75;;;20.40;99.90;;;20.39;72.38;97382.59;5043007;28;20041;-45
2022/06/23 05:37:29;;;;;;;10.88;5.10;;;20.40;99.90;;;20.43;72.37;97379.22;5042945;28;20243;-46
2022/06/23 05:40:12;;;;;;;11.88;6.18;;;20.50;99.90;;;20.50;72.33;97384.50;5042269;28;20053;-44
2022/06/23 05:42:46;;;;;;;9.02;5.47;;;20.50;99.90;;;20.53;72.16;97386.75;5042811;28;20049;-46
2022/06/23 05:45:30;;;;;;;10.88;4.80;;;20.60;99.90;;;20.52;72.52;97384.28;5042835;28;20055;-45
2022/06/23 05:48:00;;;;;;;;;;;20.60;99.90;;;20.52;72.22;97381.56;5041657;28;20037;-49
2022/06/23 05:50:46;;;;;;;11.70;6.65;;;20.60;99.90;;;20.56;72.37;97377.34;5041930;28;19924;-46
2022/06/23 05:53:38;;;;;;;9.07;5.18;;;20.70;99.90;;;20.60;72.14;97378.56;5042614;28;20053;-47
2022/06/23 05:56:19;;;;;;;10.18;5.65;;;20.70;99.90;;;20.68;72.05;97370.09;5058794;28;20241;-48
2022/06/23 05:59:00;;;;;;;12.45;5.18;;;20.80;99.90;;;20.70;72.44;97386.09;5041460;28;20284;-46
2022/06/23 06:02:26;;;;;;;13.38;5.60;;;20.80;99.90;;;20.74;72.34;97390.00;5042253;28;20041;-50
2022/06/23 06:04:58;;;;;;;10.32;5.32;;;20.90;99.90;;;20.82;72.22;97393.19;5045258;28;20054;-46
2022/06/23 06:07:40;;;;;;;11.45;6.15;;;20.90;99.90;;;20.87;72.06;97391.66;5057598;28;20049;-48
2022/06/23 06:10:20;;;;;;;10.15;5.25;;;21.00;99.90;;;20.92;71.64;97392.63;5041638;28;20064;-46
2022/06/23 06:12:50;;;;;;;9.38;4.75;;;21.00;99.90;;;20.95;71.78;97394.84;5041331;28;20055;-46
2022/06/23 06:15:38;;;;;;;9.93;5.00;;;21.00;99.90;;;21.00;71.74;97399.56;5041111;28;20067;-48
2022/06/23 06:18:33;;;;;;;7.63;5.47;;;21.10;99.90;;;21.07;71.66;97394.03;5041988;28;20049;-49
2022/06/23 06:21:06;;;;;;;10.40;5.03;;;21.10;99.90;;;21.10;71.01;97394.38;5042373;28;20057;-47
2022/06/23 06:23:42;;;;;;;9.95;4.72;;;21.20;99.90;;;21.12;70.71;97403.09;5042189;28;20049;-51
2022/06/23 06:26:15;;;;;;;10.93;6.13;;;21.20;99.90;;;21.16;71.05;97395.34;5041829;28;20354;-46
2022/06/23 06:28:44;;;;;;;10.23;4.57;;;21.20;99.90;;;21.20;70.61;97399.22;5041246;28;20049;-48
2022/06/23 06:31:26;;;;;;;12.88;4.97;;;21.20;99.90;;;21.23;70.64;97401.47;5042201;28;20046;-48
2022/06/23 06:34:22;;;;;;;7.60;4.90;;;21.30;99.90;;;21.28;70.49;97398.03;5042193;28;20060;-48
2022/06/23 06:36:53;;;;;;;8.75;5.07;;;21.40;99.90;;;21.30;70.01;97396.72;5042751;28;20068;-49
2022/06/23 06:39:28;;;;;;;10.05;5.20;;;21.40;99.90;;;21.32;70.02;97391.91;5041730;28;20054;-47
2022/06/23 06:42:19;;;;;;;6.90;4.25;;;21.40;99.90;;;21.36;69.59;97389.56;5041525;28;20049;-46
2022/06/23 06:44:52;;;;;;;11.68;4.47;;;21.50;99.90;;;21.42;69.80;97396.72;5041821;28;20067;-51
2022/06/23 06:47:28;;;;;;;9.73;4.43;;;21.50;99.90;;;21.43;69.29;97404.66;5041933;28;20235;-45
2022/06/23 06:50:05;;;;;;;10.20;4.60;;;21.50;99.90;;;21.48;68.78;97408.53;5041079;28;20064;-48
2022/06/23 06:52:33;;;;;;;6.18;3.88;;;21.60;99.90;;;21.52;68.59;97404.28;5042783;28;20324;-46
2022/06/23 06:55:11;;;;;;;12.85;4.60;;;21.60;99.90;;;21.55;68.62;97403.81;5041774;28;20046;-49
2022/06/23 06:58:17;;;;;;;10.50;6.15;;;21.60;99.90;;;21.59;68.71;97407.69;5040342;28;20060;-47
2022/06/23 07:00:55;;;;;;;7.28;3.70;;;21.70;99.90;;;21.65;68.39;97409.44;5042359;28;20053;-46
2022/06/23 07:03:25;;;;;;;9.73;5.55;;;21.70;99.90;;;21.70;68.04;97404.16;5040831;28;20046;-49
2022/06/23 07:06:06;;;;;;;9.70;6.18;;;21.80;99.90;;;21.75;68.46;97412.41;5041757;28;20059;-48
2022/06/23 07:08:39;;;;;;;14.25;4.63;;;21.90;99.90;;;21.82;68.44;97414.97;5040263;28;20055;-47
2022/06/23 07:11:44;;;;;;;6.85;4.72;;;22.00;99.90;;;21.88;68.47;97407.78;5041386;28;20060;-46
2022/06/23 07:14:23;;;;;;;9.23;5.80;;;22.10;99.90;;;22.00;69.12;97406.69;5045442;28;20041;-49
2022/06/23 07:17:24;;;;;;;18.10;4.97;;;22.20;99.90;;;22.11;68.67;97412.31;5045598;28;20049;-49
2022/06/23 07:20:02;;;;;;;10.38;4.43;;;22.40;99.90;;;22.17;68.80;97412.16;5044593;28;20053;-50
2022/06/23 07:22:42;;;;;;;13.70;5.53;;;22.40;99.90;;;22.24;68.49;97412.03;5044488;28;20050;-51
2022/06/23 07:25:19;;;;;;;12.50;4.53;;;22.50;99.90;;;22.28;67.66;97415.09;5045096;28;20057;-47
2022/06/23 07:28:04;;;;;;;13.82;5.80;;;22.50;99.90;;;22.31;67.85;97410.00;5045808;28;20080;-46
2022/06/23 07:30:49;;;;;;;16.70;4.95;;;22.50;99.90;;;22.35;67.33;97404.91;5045397;28;20225;-46
2022/06/23 07:34:05;;;;;;;10.68;4.28;;;22.60;99.90;;;22.41;67.83;97409.38;5044358;28;20055;-47
2022/06/23 07:36:57;;;;;;;8.13;4.38;;;22.60;99.90;;;22.47;67.52;97404.84;5042576;28;20048;-48
2022/06/23 07:39:35;;;;;;;7.72;4.28;;;22.70;99.90;;;22.52;67.30;97404.97;5045240;28;20063;-48
2022/06/23 07:42:12;;;;;;;7.07;3.78;;;22.70;99.90;;;22.53;67.00;97410.16;5044245;28;20045;-49
2022/06/23 07:44:50;;;;;;;11.63;3.83;;;22.80;99.90;;;22.56;66.51;97406.13;5045111;28;20053;-50
2022/06/23 07:47:19;;;;;;;15.07;4.30;;;22.70;99.90;;;22.59;66.38;97395.59;5044034;28;20247;-46
2022/06/23 07:49:47;;;;;;;12.63;5.35;;;22.80;99.90;;;22.61;66.29;97398.09;5044758;28;20246;-46
2022/06/23 07:52:18;;;;;;;5.57;3.90;;;22.80;99.90;;;22.63;66.25;97392.41;5044981;28;20108;-46
2022/06/23 07:54:49;;;;;;;7.15;4.47;;;22.80;99.90;;;22.64;66.28;97392.16;5044748;28;20056;-46
2022/06/23 07:57:17;;;;;;;6.65;3.90;;;22.80;99.90;;;22.67;66.27;97385.44;5043173;28;20053;-46
2022/06/23 07:59:58;;;;;;;5.95;3.58;;;22.90;99.90;;;22.69;65.49;97380.56;5045245;28;20225;-46
2022/06/23 08:02:46;;;;;;;9.20;4.15;;;22.90;99.90;;;22.72;64.84;97372.78;5044221;28;20248;-47
2022/06/23 08:05:40;;;;;;;9.05;4.18;;;22.90;99.90;;;22.76;65.96;97375.78;5044562;28;20053;-48
2022/06/23 08:08:19;;;;;;;10.90;4.50;;;23.00;99.90;;;22.81;66.13;97384.84;5044362;28;20041;-46
2022/06/23 08:12:53;;;;;;;7.70;4.72;;;23.00;99.90;;;22.87;65.83;97377.59;5042840;28;20041;-47
2022/06/23 08:13:45;;;;;;;6.32;3.88;;;23.10;99.90;;;22.91;64.37;97383.38;5037745;28;20044;-49
2022/06/23 08:19:13;;;;;;;10.23;4.70;;;23.20;99.90;;;23.02;65.22;97373.50;5023383;28;20141;-46
2022/06/23 08:21:53;;;;;;;10.23;4.93;;;23.20;99.90;;;23.06;64.75;97364.63;5023607;28;20049;-45
2022/06/23 08:24:23;;;;;;;8.88;4.85;;;23.30;99.90;;;23.10;64.36;97381.25;5023008;28;20045;-48
2022/06/23 08:26:58;;;;;;;11.50;5.78;;;23.30;99.90;;;23.11;64.46;97372.88;5024410;28;20058;-46
2022/06/23 08:29:34;;;;;;;10.30;5.43;;;23.30;99.90;;;23.15;64.54;97368.59;5024120;28;20045;-46
2022/06/23 08:32:02;;;;;;;15.05;4.95;;;23.40;99.90;;;23.22;64.42;97371.13;5025264;28;20054;-45
2022/06/23 08:34:33;;;;;;;9.80;4.93;;;23.40;99.90;;;23.26;64.38;97366.00;5022892;28;20332;-48
2022/06/23 08:37:23;;;;;;;12.25;5.75;;;23.50;99.90;;;23.30;64.16;97359.00;5023354;28;20042;-49
2022/06/23 08:40:11;;;;;;;11.00;5.55;;;23.50;99.90;;;23.30;64.03;97357.13;5024167;28;20084;-50
2022/06/23 08:43:12;;;;;;;9.75;4.35;;;23.50;99.90;;;23.34;63.67;97343.84;5023089;28;20072;-48
2022/06/23 08:45:51;;;;;;;8.55;4.35;;;23.60;99.90;;;23.40;63.07;97351.03;5024205;28;20349;-47
2022/06/23 08:48:46;;;;;;;6.97;4.20;;;23.60;99.90;;;23.43;62.71;97350.50;5023673;28;20045;-47
2022/06/23 08:51:39;;;;;;;8.25;4.35;;;23.60;99.90;;;23.47;63.09;97348.94;5009455;28;20100;-48
2022/06/23 08:54:32;;;;;;;8.95;3.83;;;23.70;99.90;;;23.50;61.86;97348.44;5023690;28;20060;-47
2022/06/23 08:57:24;;;;;;;11.27;4.68;;;23.70;99.90;;;23.57;62.24;97346.38;5024374;28;20055;-46
2022/06/23 09:00:05;;;;;;;7.50;4.53;;;23.80;98.20;;;23.61;60.74;97346.66;5023874;28;20046;-47
2022/06/23 09:02:50;;;;;;;10.18;4.43;;;23.90;99.90;;;23.70;61.82;97344.34;5022819;28;20060;-50
2022/06/23 09:05:41;;;;;;;8.35;4.43;;;23.90;98.00;;;23.74;61.83;97346.28;5022577;28;20046;-45
2022/06/23 09:08:32;;;;;;;10.57;4.63;;;24.00;97.30;;;23.75;61.22;97342.50;5006267;28;20050;-50
2022/06/23 09:11:32;;;;;;;10.73;5.25;;;24.00;95.10;;;23.78;61.48;97342.00;5023020;28;20056;-50
2022/06/23 09:14:27;;;;;;;10.07;4.40;;;24.00;96.70;;;23.84;61.45;97337.47;5024413;28;20050;-48
2022/06/23 09:17:21;;;;;;;12.20;4.30;;;24.10;94.70;;;23.83;60.55;97335.84;5023554;28;20046;-48
2022/06/23 09:20:07;;;;;;;7.53;4.22;;;24.10;94.80;;;23.89;60.84;97337.53;5023451;28;20293;-46
2022/06/23 09:22:47;;;;;;;7.78;4.22;;;24.10;94.50;;;23.90;60.65;97339.16;5023404;28;20037;-50
2022/06/23 09:25:41;;;;;;;10.43;3.60;;;24.10;93.30;;;23.97;60.56;97330.81;5023112;28;20044;-47
2022/06/23 09:28:28;;;;;;;7.47;3.88;;;24.20;90.90;;;24.01;60.03;97329.22;5023531;28;20046;-45
2022/06/23 09:31:31;;;;;;;9.65;3.50;;;24.20;89.70;;;24.01;58.73;97325.69;5023638;28;20053;-48
2022/06/23 09:34:18;;;;;;;6.60;3.97;;;24.30;86.10;;;24.07;58.71;97328.19;5021950;28;20042;-48
2022/06/23 09:37:24;;;;;;;9.48;5.05;;;24.30;86.70;;;24.14;59.41;97325.28;5023005;28;20045;-45
2022/06/23 09:40:33;;;;;;;9.93;4.72;;;24.40;86.80;;;24.18;58.37;97316.34;5022037;28;20348;-46
2022/06/23 09:43:59;;;;;;;6.38;3.80;;;24.50;85.60;;;24.22;59.01;97319.38;5023987;28;20270;-49
2022/06/23 09:46:30;;;;;;;9.32;4.10;;;24.50;84.50;;;24.28;59.20;97317.53;5022830;28;20366;-48
2022/06/23 09:49:15;;;;;;;7.60;4.03;;;24.50;87.00;;;24.32;59.08;97322.19;5022528;28;20046;-50
2022/06/23 09:52:25;;;;;;;7.85;3.65;;;24.60;85.20;;;24.32;57.73;97311.31;5023070;28;20042;-48
2022/06/23 09:55:37;;;;;;;8.25;4.47;;;24.60;80.40;;;24.38;58.29;97312.19;5023125;28;20344;-49
2022/06/23 09:58:22;;;;;;;6.88;3.17;;;24.60;81.90;;;24.46;58.33;97303.53;5022464;28;20042;-47
2022/06/23 10:01:25;;;;;;;8.77;3.88;;;24.70;81.40;;;24.48;57.17;97295.94;5021816;28;20041;-50
2022/06/23 10:04:34;;;;;;;5.27;3.60;;;24.80;77.60;;;24.50;56.69;97296.50;5022065;28;20050;-50
2022/06/23 10:07:14;;;;;;;6.82;2.97;;;24.80;76.90;;;24.57;56.51;97296.34;5021913;28;20312;-49
2022/06/23 10:10:18;;;;;;;6.93;4.38;;;24.90;75.80;;;24.60;56.37;97293.06;5021149;28;20046;-46
2022/06/23 10:12:54;;;;;;;9.50;3.88;;;24.90;74.00;;;24.72;56.73;97295.66;5021678;28;20041;-50
2022/06/23 10:15:42;;;;;;;10.07;4.10;;;25.00;74.00;;;24.80;56.50;97300.59;5023708;28;20046;-46
2022/06/23 10:18:35;;;;;;;6.70;3.50;;;25.10;74.10;;;24.86;55.85;97293.28;5022255;28;20049;-48
2022/06/23 10:21:40;;;;;;;5.72;3.53;;;25.10;72.20;;;24.92;55.91;97293.03;5022472;28;20049;-46
2022/06/23 10:24:33;;;;;;;6.30;3.80;;;25.20;72.80;;;24.96;55.62;97298.78;5022196;28;20257;-47
2022/06/23 10:27:44;;;;;;;10.55;4.10;;;25.30;70.20;;;25.00;53.93;97299.09;5022485;28;20050;-48
2022/06/23 10:30:21;;;;;;;10.70;4.45;;;25.30;69.60;;;25.06;55.24;97293.41;5022999;28;20064;-47
2022/06/23 10:33:32;;;;;;;5.22;3.33;;;25.40;70.90;;;25.13;54.07;97287.75;5023959;28;20053;-45
2022/06/23 10:36:12;;;;;;;9.35;3.65;;;25.50;68.90;;;25.20;54.83;97282.84;5021118;28;20344;-46
2022/06/23 10:38:50;;;;;;;7.78;3.60;;;25.50;68.70;;;25.25;54.83;97282.91;5022121;28;20283;-46
2022/06/23 10:41:44;;;;;;;6.80;3.72;;;25.60;70.70;;;25.31;54.61;97289.22;5022237;28;20050;-50
2022/06/23 10:44:54;;;;;;;9.25;4.13;;;25.60;68.80;;;25.31;54.32;97275.59;5021154;28;20057;-46
2022/06/23 10:47:43;;;;;;;12.88;4.70;;;25.70;65.50;;;25.33;54.04;97268.78;5024141;28;20064;-46
2022/06/23 10:50:35;;;;;;;10.45;4.75;;;25.70;66.90;;;25.41;53.58;97269.38;5024898;28;20054;-49
2022/06/23 10:53:28;;;;;;;11.15;3.80;;;25.80;68.00;;;25.49;53.81;97269.69;5026439;28;20052;-47
2022/06/23 10:56:09;;;;;;;7.00;3.95;;;25.80;67.20;;;25.56;53.67;97266.72;5024842;28;20048;-48
2022/06/23 10:59:20;;;;;;;8.02;4.32;;;25.90;65.90;;;25.62;53.72;97256.66;5026380;28;20060;-46
2022/06/23 11:02:26;;;;;;;6.47;3.70;;;26.00;66.00;;;25.70;52.93;97258.84;5025668;28;20050;-45
2022/06/23 11:05:10;;;;;;;9.90;3.78;;;26.10;67.00;;;25.77;52.04;97253.97;5026261;28;20141;-46
2022/06/23 11:07:47;;;;;;;10.82;4.00;;;26.10;66.50;;;25.82;51.82;97247.69;5025888;28;20230;-50
2022/06/23 11:10:59;;;;;;;7.35;4.70;;;26.20;64.20;;;25.89;52.98;97240.09;5024000;28;20052;-46
2022/06/23 11:13:39;;;;;;;9.32;3.95;;;26.30;64.00;;;25.97;51.51;97236.84;5026836;28;20058;-48
2022/06/23 11:16:44;;;;;;;7.10;3.60;;;26.30;63.20;;;26.06;52.23;97243.41;5024651;28;20064;-47
2022/06/23 11:19:44;;;;;;;7.68;4.68;;;26.50;62.90;;;26.14;51.35;97222.97;5025598;28;20045;-52
2022/06/23 11:22:59;;;;;;;8.80;4.13;;;26.50;63.60;;;26.19;52.52;97224.88;5025027;28;20113;-48
2022/06/23 11:25:51;;;;;;;7.65;3.35;;;26.60;61.90;;;26.29;52.02;97225.69;5024442;28;20064;-49
2022/06/23 11:28:40;;;;;;;8.32;4.10;;;26.80;62.40;;;26.39;50.99;97227.63;5026365;28;20045;-50
2022/06/23 11:31:52;;;;;;;8.50;3.88;;;26.80;59.90;;;26.46;50.91;97219.97;5025991;28;20056;-50
2022/06/23 11:34:46;;;;;;;9.18;4.40;;;27.00;58.50;;;26.51;49.67;97221.88;5025502;28;20056;-51
2022/06/23 11:38:01;;;;;;;13.48;4.07;;;27.00;60.70;;;26.57;49.17;97219.97;5025384;28;20046;-49
2022/06/23 11:40:51;;;;;;;7.82;3.75;;;27.00;57.10;;;26.66;50.27;97223.81;5026529;28;20045;-47
2022/06/23 11:43:30;;;;;;;13.00;4.22;;;27.10;58.50;;;26.77;50.46;97225.41;5025304;28;20046;-46
2022/06/23 11:46:23;;;;;;;7.57;3.83;;;27.30;60.00;;;26.85;49.09;97221.28;5025148;28;20067;-48